sensor_id;sensor_type;location;lat;lon;timestamp;P1;durP1;ratioP1;P2;durP2;ratioP2
20954;SDS011;10636;19.390;-99.256;2023-06-05T00:00:52;8.38;;;7.57;;
20954;SDS011;10636;19.390;-99.256;2023-06-05T00:03:22;8.25;;;7.55;;
20954;SDS011;10636;19.390;-99.256;2023-06-05T00:05:52;8.70;;;8.00;;
20954;SDS011;10636;19.390;-99.256;2023-06-05T00:08:21;9.00;;;7.72;;
20954;SDS011;10636;19.390;-99.256;2023-06-05T00:10:49;9.07;;;8.27;;
20954;SDS011;10636;19.390;-99.256;2023-06-05T00:13:18;8.85;;;8.02;;
20954;SDS011;10636;19.390;-99.256;2023-06-05T00:15:46;8.18;;;7.38;;
20954;SDS011;10636;19.390;-99.256;2023-06-05T00:18:16;8.60;;;7.75;;
20954;SDS011;10636;19.390;-99.256;2023-06-05T00:20:46;8.65;;;7.82;;
20954;SDS011;10636;19.390;-99.256;2023-06-05T00:23:15;8.35;;;7.65;;
20954;SDS011;10636;19.390;-99.256;2023-06-05T00:25:43;8.00;;;7.30;;
20954;SDS011;10636;19.390;-99.256;2023-06-05T00:28:11;8.50;;;7.72;;
20954;SDS011;10636;19.390;-99.256;2023-06-05T00:30:40;8.82;;;7.88;;
20954;SDS011;10636;19.390;-99.256;2023-06-05T00:33:10;8.40;;;7.53;;
20954;SDS011;10636;19.390;-99.256;2023-06-05T00:35:39;8.10;;;7.40;;
20954;SDS011;10636;19.390;-99.256;2023-06-05T00:38:09;7.97;;;7.28;;
20954;SDS011;10636;19.390;-99.256;2023-06-05T00:40:37;8.48;;;7.38;;
20954;SDS011;10636;19.390;-99.256;2023-06-05T00:43:06;8.02;;;7.32;;
20954;SDS011;10636;19.390;-99.256;2023-06-05T00:45:36;8.50;;;7.60;;
20954;SDS011;10636;19.390;-99.256;2023-06-05T00:48:05;8.43;;;7.47;;
20954;SDS011;10636;19.390;-99.256;2023-06-05T00:50:34;7.75;;;7.15;;
20954;SDS011;10636;19.390;-99.256;2023-06-05T00:53:03;8.27;;;7.57;;
20954;SDS011;10636;19.390;-99.256;2023-06-05T00:55:35;8.00;;;7.30;;
20954;SDS011;10636;19.390;-99.256;2023-06-05T00:58:03;7.95;;;7.25;;
20954;SDS011;10636;19.390;-99.256;2023-06-05T01:00:32;8.20;;;7.50;;
20954;SDS011;10636;19.390;-99.256;2023-06-05T01:03:01;9.45;;;7.85;;
20954;SDS011;10636;19.390;-99.256;2023-06-05T01:05:30;8.35;;;7.47;;
20954;SDS011;10636;19.390;-99.256;2023-06-05T01:07:59;8.00;;;7.40;;
20954;SDS011;10636;19.390;-99.256;2023-06-05T01:10:28;8.40;;;7.70;;
20954;SDS011;10636;19.390;-99.256;2023-06-05T01:13:05;8.23;;;7.45;;
20954;SDS011;10636;19.390;-99.256;2023-06-05T01:15:41;8.20;;;7.40;;
20954;SDS011;10636;19.390;-99.256;2023-06-05T01:18:09;8.02;;;7.32;;
20954;SDS011;10636;19.390;-99.256;2023-06-05T01:20:39;8.00;;;7.28;;
20954;SDS011;10636;19.390;-99.256;2023-06-05T01:23:10;8.00;;;7.28;;
20954;SDS011;10636;19.390;-99.256;2023-06-05T01:25:38;7.97;;;7.25;;
20954;SDS011;10636;19.390;-99.256;2023-06-05T01:28:08;7.93;;;7.30;;
20954;SDS011;10636;19.390;-99.256;2023-06-05T01:30:43;8.02;;;7.30;;
20954;SDS011;10636;19.390;-99.256;2023-06-05T01:33:22;9.30;;;7.63;;
20954;SDS011;10636;19.390;-99.256;2023-06-05T01:35:56;8.95;;;7.60;;
20954;SDS011;10636;19.390;-99.256;2023-06-05T01:38:32;8.15;;;7.40;;
20954;SDS011;10636;19.390;-99.256;2023-06-05T01:41:01;8.50;;;7.70;;
20954;SDS011;10636;19.390;-99.256;2023-06-05T01:43:30;7.80;;;7.10;;
20954;SDS011;10636;19.390;-99.256;2023-06-05T01:45:59;8.32;;;7.60;;
20954;SDS011;10636;19.390;-99.256;2023-06-05T01:48:28;8.23;;;7.43;;
20954;SDS011;10636;19.390;-99.256;2023-06-05T01:50:58;8.35;;;7.65;;
20954;SDS011;10636;19.390;-99.256;2023-06-05T01:53:27;8.38;;;7.57;;
20954;SDS011;10636;19.390;-99.256;2023-06-05T01:55:58;8.30;;;7.55;;
20954;SDS011;10636;19.390;-99.256;2023-06-05T01:58:28;9.07;;;8.10;;
20954;SDS011;10636;19.390;-99.256;2023-06-05T02:00:56;8.30;;;7.63;;
20954;SDS011;10636;19.390;-99.256;2023-06-05T02:03:25;8.32;;;7.53;;
20954;SDS011;10636;19.390;-99.256;2023-06-05T02:05:53;9.13;;;8.32;;
20954;SDS011;10636;19.390;-99.256;2023-06-05T02:08:22;9.73;;;8.77;;
20954;SDS011;10636;19.390;-99.256;2023-06-05T02:10:50;10.23;;;9.32;;
20954;SDS011;10636;19.390;-99.256;2023-06-05T02:13:21;9.82;;;8.93;;
20954;SDS011;10636;19.390;-99.256;2023-06-05T02:15:50;9.60;;;8.80;;
20954;SDS011;10636;19.390;-99.256;2023-06-05T02:18:22;8.30;;;7.50;;
20954;SDS011;10636;19.390;-99.256;2023-06-05T02:20:53;8.68;;;7.88;;
20954;SDS011;10636;19.390;-99.256;2023-06-05T02:23:22;8.45;;;7.65;;
20954;SDS011;10636;19.390;-99.256;2023-06-05T02:25:50;8.20;;;7.50;;
20954;SDS011;10636;19.390;-99.256;2023-06-05T02:28:19;7.97;;;7.20;;
20954;SDS011;10636;19.390;-99.256;2023-06-05T02:30:49;7.75;;;7.07;;
20954;SDS011;10636;19.390;-99.256;2023-06-05T02:33:19;8.25;;;7.45;;
20954;SDS011;10636;19.390;-99.256;2023-06-05T02:35:47;8.18;;;7.47;;
20954;SDS011;10636;19.390;-99.256;2023-06-05T02:38:16;8.30;;;7.60;;
20954;SDS011;10636;19.390;-99.256;2023-06-05T02:40:44;8.60;;;7.85;;
20954;SDS011;10636;19.390;-99.256;2023-06-05T02:43:13;9.00;;;8.20;;
20954;SDS011;10636;19.390;-99.256;2023-06-05T02:45:44;9.05;;;8.15;;
20954;SDS011;10636;19.390;-99.256;2023-06-05T02:48:13;8.25;;;7.60;;
20954;SDS011;10636;19.390;-99.256;2023-06-05T02:50:41;8.77;;;8.07;;
20954;SDS011;10636;19.390;-99.256;2023-06-05T02:53:10;8.68;;;7.88;;
20954;SDS011;10636;19.390;-99.256;2023-06-05T02:55:38;9.60;;;8.70;;
20954;SDS011;10636;19.390;-99.256;2023-06-05T02:58:08;9.35;;;8.38;;
20954;SDS011;10636;19.390;-99.256;2023-06-05T03:00:38;9.43;;;8.63;;
20954;SDS011;10636;19.390;-99.256;2023-06-05T03:03:09;8.73;;;8.05;;
20954;SDS011;10636;19.390;-99.256;2023-06-05T03:05:38;10.00;;;9.05;;
20954;SDS011;10636;19.390;-99.256;2023-06-05T03:08:08;9.35;;;8.45;;
20954;SDS011;10636;19.390;-99.256;2023-06-05T03:10:37;9.90;;;9.00;;
20954;SDS011;10636;19.390;-99.256;2023-06-05T03:13:08;9.65;;;8.85;;
20954;SDS011;10636;19.390;-99.256;2023-06-05T03:15:36;9.70;;;8.77;;
20954;SDS011;10636;19.390;-99.256;2023-06-05T03:18:05;9.65;;;8.85;;
20954;SDS011;10636;19.390;-99.256;2023-06-05T03:20:35;9.50;;;8.80;;
20954;SDS011;10636;19.390;-99.256;2023-06-05T03:23:03;9.60;;;8.80;;
20954;SDS011;10636;19.390;-99.256;2023-06-05T03:25:34;10.20;;;9.30;;
20954;SDS011;10636;19.390;-99.256;2023-06-05T03:28:02;9.57;;;8.77;;
20954;SDS011;10636;19.390;-99.256;2023-06-05T03:30:32;9.82;;;8.95;;
20954;SDS011;10636;19.390;-99.256;2023-06-05T03:33:00;9.70;;;8.88;;
20954;SDS011;10636;19.390;-99.256;2023-06-05T03:35:28;9.30;;;8.60;;
20954;SDS011;10636;19.390;-99.256;2023-06-05T03:37:59;9.98;;;8.88;;
20954;SDS011;10636;19.390;-99.256;2023-06-05T03:40:28;9.93;;;9.10;;
20954;SDS011;10636;19.390;-99.256;2023-06-05T03:42:57;9.95;;;9.15;;
20954;SDS011;10636;19.390;-99.256;2023-06-05T03:45:25;10.13;;;9.23;;
20954;SDS011;10636;19.390;-99.256;2023-06-05T03:47:54;9.98;;;9.05;;
20954;SDS011;10636;19.390;-99.256;2023-06-05T03:50:25;9.27;;;8.57;;
20954;SDS011;10636;19.390;-99.256;2023-06-05T03:52:56;9.52;;;8.63;;
20954;SDS011;10636;19.390;-99.256;2023-06-05T03:55:30;9.32;;;8.63;;
20954;SDS011;10636;19.390;-99.256;2023-06-05T03:58:10;10.25;;;9.05;;
20954;SDS011;10636;19.390;-99.256;2023-06-05T04:00:40;9.98;;;8.98;;
20954;SDS011;10636;19.390;-99.256;2023-06-05T04:03:09;10.07;;;9.07;;
20954;SDS011;10636;19.390;-99.256;2023-06-05T04:05:38;10.40;;;9.50;;
20954;SDS011;10636;19.390;-99.256;2023-06-05T04:08:08;10.07;;;9.18;;
20954;SDS011;10636;19.390;-99.256;2023-06-05T04:10:39;10.35;;;9.45;;
20954;SDS011;10636;19.390;-99.256;2023-06-05T04:13:08;9.90;;;9.00;;
20954;SDS011;10636;19.390;-99.256;2023-06-05T04:15:36;10.52;;;9.63;;
20954;SDS011;10636;19.390;-99.256;2023-06-05T04:18:05;9.93;;;9.02;;
20954;SDS011;10636;19.390;-99.256;2023-06-05T04:20:33;9.93;;;9.07;;
20954;SDS011;10636;19.390;-99.256;2023-06-05T04:23:02;9.90;;;9.10;;
20954;SDS011;10636;19.390;-99.256;2023-06-05T04:25:30;10.00;;;9.00;;
20954;SDS011;10636;19.390;-99.256;2023-06-05T04:28:00;9.90;;;8.90;;
20954;SDS011;10636;19.390;-99.256;2023-06-05T04:30:29;10.23;;;9.27;;
20954;SDS011;10636;19.390;-99.256;2023-06-05T04:32:57;9.90;;;9.10;;
20954;SDS011;10636;19.390;-99.256;2023-06-05T04:35:26;9.63;;;8.82;;
20954;SDS011;10636;19.390;-99.256;2023-06-05T04:37:54;9.98;;;9.00;;
20954;SDS011;10636;19.390;-99.256;2023-06-05T04:40:23;10.05;;;9.10;;
20954;SDS011;10636;19.390;-99.256;2023-06-05T04:42:51;10.30;;;9.40;;
20954;SDS011;10636;19.390;-99.256;2023-06-05T04:45:21;10.00;;;9.15;;
20954;SDS011;10636;19.390;-99.256;2023-06-05T04:47:50;10.30;;;9.45;;
20954;SDS011;10636;19.390;-99.256;2023-06-05T04:50:21;9.82;;;8.93;;
20954;SDS011;10636;19.390;-99.256;2023-06-05T04:52:55;10.30;;;9.25;;
20954;SDS011;10636;19.390;-99.256;2023-06-05T04:55:24;10.32;;;9.43;;
20954;SDS011;10636;19.390;-99.256;2023-06-05T04:57:52;9.88;;;9.07;;
20954;SDS011;10636;19.390;-99.256;2023-06-05T05:00:29;9.70;;;8.90;;
20954;SDS011;10636;19.390;-99.256;2023-06-05T05:03:00;10.35;;;9.35;;
20954;SDS011;10636;19.390;-99.256;2023-06-05T05:05:29;10.30;;;9.40;;
20954;SDS011;10636;19.390;-99.256;2023-06-05T05:07:58;10.50;;;9.50;;
20954;SDS011;10636;19.390;-99.256;2023-06-05T05:10:26;10.45;;;9.55;;
20954;SDS011;10636;19.390;-99.256;2023-06-05T05:12:55;10.20;;;9.10;;
20954;SDS011;10636;19.390;-99.256;2023-06-05T05:15:30;10.40;;;9.50;;
20954;SDS011;10636;19.390;-99.256;2023-06-05T05:17:59;10.23;;;9.32;;
20954;SDS011;10636;19.390;-99.256;2023-06-05T05:20:29;9.80;;;8.88;;
20954;SDS011;10636;19.390;-99.256;2023-06-05T05:22:59;10.40;;;9.50;;
20954;SDS011;10636;19.390;-99.256;2023-06-05T05:25:28;10.48;;;9.07;;
20954;SDS011;10636;19.390;-99.256;2023-06-05T05:27:56;10.35;;;9.30;;
20954;SDS011;10636;19.390;-99.256;2023-06-05T05:30:25;9.95;;;8.98;;
20954;SDS011;10636;19.390;-99.256;2023-06-05T05:32:55;10.43;;;9.50;;
20954;SDS011;10636;19.390;-99.256;2023-06-05T05:35:24;10.75;;;9.00;;
20954;SDS011;10636;19.390;-99.256;2023-06-05T05:37:52;10.00;;;9.00;;
20954;SDS011;10636;19.390;-99.256;2023-06-05T05:40:20;9.80;;;8.90;;
20954;SDS011;10636;19.390;-99.256;2023-06-05T05:42:49;9.95;;;8.95;;
20954;SDS011;10636;19.390;-99.256;2023-06-05T05:45:17;9.70;;;8.85;;
20954;SDS011;10636;19.390;-99.256;2023-06-05T05:47:46;9.90;;;8.63;;
20954;SDS011;10636;19.390;-99.256;2023-06-05T05:50:16;9.88;;;8.98;;
20954;SDS011;10636;19.390;-99.256;2023-06-05T05:52:44;10.38;;;9.40;;
20954;SDS011;10636;19.390;-99.256;2023-06-05T05:55:13;9.50;;;8.63;;
20954;SDS011;10636;19.390;-99.256;2023-06-05T05:57:41;9.75;;;8.85;;
20954;SDS011;10636;19.390;-99.256;2023-06-05T06:00:10;9.30;;;8.50;;
20954;SDS011;10636;19.390;-99.256;2023-06-05T06:02:40;10.50;;;9.18;;
20954;SDS011;10636;19.390;-99.256;2023-06-05T06:05:09;10.20;;;9.13;;
20954;SDS011;10636;19.390;-99.256;2023-06-05T06:07:39;10.50;;;9.40;;
20954;SDS011;10636;19.390;-99.256;2023-06-05T06:10:08;9.98;;;9.00;;
20954;SDS011;10636;19.390;-99.256;2023-06-05T06:12:37;9.50;;;8.60;;
20954;SDS011;10636;19.390;-99.256;2023-06-05T06:15:06;9.80;;;8.90;;
20954;SDS011;10636;19.390;-99.256;2023-06-05T06:17:35;10.30;;;9.30;;
20954;SDS011;10636;19.390;-99.256;2023-06-05T06:20:04;10.30;;;9.30;;
20954;SDS011;10636;19.390;-99.256;2023-06-05T06:22:35;10.32;;;9.27;;
20954;SDS011;10636;19.390;-99.256;2023-06-05T06:25:05;10.90;;;9.10;;
20954;SDS011;10636;19.390;-99.256;2023-06-05T06:27:35;10.40;;;9.40;;
20954;SDS011;10636;19.390;-99.256;2023-06-05T06:30:04;9.50;;;8.70;;
20954;SDS011;10636;19.390;-99.256;2023-06-05T06:32:33;9.57;;;8.70;;
20954;SDS011;10636;19.390;-99.256;2023-06-05T06:35:02;11.82;;;9.40;;
20954;SDS011;10636;19.390;-99.256;2023-06-05T06:37:31;9.55;;;8.65;;
20954;SDS011;10636;19.390;-99.256;2023-06-05T06:40:00;10.25;;;8.77;;
20954;SDS011;10636;19.390;-99.256;2023-06-05T06:42:31;9.90;;;8.90;;
20954;SDS011;10636;19.390;-99.256;2023-06-05T06:44:59;10.35;;;9.32;;
20954;SDS011;10636;19.390;-99.256;2023-06-05T06:47:29;10.18;;;9.18;;
20954;SDS011;10636;19.390;-99.256;2023-06-05T06:49:58;10.18;;;9.18;;
20954;SDS011;10636;19.390;-99.256;2023-06-05T06:52:26;9.50;;;8.52;;
20954;SDS011;10636;19.390;-99.256;2023-06-05T06:54:57;10.40;;;9.07;;
20954;SDS011;10636;19.390;-99.256;2023-06-05T06:57:26;9.95;;;9.05;;
20954;SDS011;10636;19.390;-99.256;2023-06-05T06:59:56;11.13;;;9.23;;
20954;SDS011;10636;19.390;-99.256;2023-06-05T07:02:24;10.38;;;9.23;;
20954;SDS011;10636;19.390;-99.256;2023-06-05T07:04:53;9.65;;;8.85;;
20954;SDS011;10636;19.390;-99.256;2023-06-05T07:07:21;9.30;;;8.43;;
20954;SDS011;10636;19.390;-99.256;2023-06-05T07:09:50;10.43;;;9.40;;
20954;SDS011;10636;19.390;-99.256;2023-06-05T07:12:18;10.50;;;9.45;;
20954;SDS011;10636;19.390;-99.256;2023-06-05T07:14:48;9.95;;;9.15;;
20954;SDS011;10636;19.390;-99.256;2023-06-05T07:17:18;10.27;;;9.38;;
20954;SDS011;10636;19.390;-99.256;2023-06-05T07:19:46;10.27;;;9.43;;
20954;SDS011;10636;19.390;-99.256;2023-06-05T07:22:15;10.63;;;9.55;;
20954;SDS011;10636;19.390;-99.256;2023-06-05T07:24:43;9.68;;;8.77;;
20954;SDS011;10636;19.390;-99.256;2023-06-05T07:27:12;10.35;;;9.45;;
20954;SDS011;10636;19.390;-99.256;2023-06-05T07:29:40;9.85;;;8.95;;
20954;SDS011;10636;19.390;-99.256;2023-06-05T07:32:09;9.90;;;9.00;;
20954;SDS011;10636;19.390;-99.256;2023-06-05T07:34:39;10.77;;;9.77;;
20954;SDS011;10636;19.390;-99.256;2023-06-05T07:37:07;10.65;;;9.63;;
20954;SDS011;10636;19.390;-99.256;2023-06-05T07:39:36;10.30;;;9.40;;
20954;SDS011;10636;19.390;-99.256;2023-06-05T07:42:04;10.45;;;9.55;;
20954;SDS011;10636;19.390;-99.256;2023-06-05T07:44:33;10.57;;;9.45;;
20954;SDS011;10636;19.390;-99.256;2023-06-05T07:47:01;10.02;;;9.23;;
20954;SDS011;10636;19.390;-99.256;2023-06-05T07:49:30;11.13;;;9.98;;
20954;SDS011;10636;19.390;-99.256;2023-06-05T07:52:00;10.80;;;9.80;;
20954;SDS011;10636;19.390;-99.256;2023-06-05T07:54:29;10.77;;;9.68;;
20954;SDS011;10636;19.390;-99.256;2023-06-05T07:56:57;11.82;;;10.07;;
20954;SDS011;10636;19.390;-99.256;2023-06-05T07:59:26;11.10;;;10.00;;
20954;SDS011;10636;19.390;-99.256;2023-06-05T08:01:55;11.45;;;10.38;;
20954;SDS011;10636;19.390;-99.256;2023-06-05T08:04:23;11.68;;;10.40;;
20954;SDS011;10636;19.390;-99.256;2023-06-05T08:06:53;11.25;;;10.15;;
20954;SDS011;10636;19.390;-99.256;2023-06-05T08:09:23;11.60;;;10.40;;
20954;SDS011;10636;19.390;-99.256;2023-06-05T08:11:51;10.98;;;9.95;;
20954;SDS011;10636;19.390;-99.256;2023-06-05T08:14:21;11.40;;;10.40;;
20954;SDS011;10636;19.390;-99.256;2023-06-05T08:16:50;11.20;;;10.18;;
20954;SDS011;10636;19.390;-99.256;2023-06-05T08:19:18;11.85;;;10.75;;
20954;SDS011;10636;19.390;-99.256;2023-06-05T08:21:49;11.15;;;10.07;;
20954;SDS011;10636;19.390;-99.256;2023-06-05T08:24:19;11.13;;;10.10;;
20954;SDS011;10636;19.390;-99.256;2023-06-05T08:26:49;10.52;;;9.52;;
20954;SDS011;10636;19.390;-99.256;2023-06-05T08:29:18;11.52;;;10.38;;
20954;SDS011;10636;19.390;-99.256;2023-06-05T08:31:46;11.30;;;10.15;;
20954;SDS011;10636;19.390;-99.256;2023-06-05T08:34:15;11.70;;;10.60;;
20954;SDS011;10636;19.390;-99.256;2023-06-05T08:36:43;11.60;;;10.50;;
20954;SDS011;10636;19.390;-99.256;2023-06-05T08:39:11;11.43;;;10.23;;
20954;SDS011;10636;19.390;-99.256;2023-06-05T08:41:40;11.48;;;10.27;;
20954;SDS011;10636;19.390;-99.256;2023-06-05T08:44:12;13.57;;;10.00;;
20954;SDS011;10636;19.390;-99.256;2023-06-05T08:46:41;11.75;;;10.63;;
20954;SDS011;10636;19.390;-99.256;2023-06-05T08:49:11;10.93;;;9.90;;
20954;SDS011;10636;19.390;-99.256;2023-06-05T08:51:43;12.07;;;10.88;;
20954;SDS011;10636;19.390;-99.256;2023-06-05T08:54:16;11.23;;;10.02;;
20954;SDS011;10636;19.390;-99.256;2023-06-05T08:56:46;11.50;;;10.32;;
20954;SDS011;10636;19.390;-99.256;2023-06-05T08:59:17;11.65;;;10.55;;
20954;SDS011;10636;19.390;-99.256;2023-06-05T09:01:49;11.43;;;10.38;;
20954;SDS011;10636;19.390;-99.256;2023-06-05T09:04:18;11.13;;;10.13;;
20954;SDS011;10636;19.390;-99.256;2023-06-05T09:06:46;10.95;;;9.98;;
20954;SDS011;10636;19.390;-99.256;2023-06-05T09:09:17;11.23;;;10.23;;
20954;SDS011;10636;19.390;-99.256;2023-06-05T09:11:46;11.32;;;10.30;;
20954;SDS011;10636;19.390;-99.256;2023-06-05T09:14:14;11.90;;;10.80;;
20954;SDS011;10636;19.390;-99.256;2023-06-05T09:16:56;11.50;;;10.50;;
20954;SDS011;10636;19.390;-99.256;2023-06-05T09:19:28;10.70;;;9.70;;
20954;SDS011;10636;19.390;-99.256;2023-06-05T09:22:05;11.40;;;10.45;;
20954;SDS011;10636;19.390;-99.256;2023-06-05T09:24:34;12.23;;;11.15;;
20954;SDS011;10636;19.390;-99.256;2023-06-05T09:27:03;11.43;;;10.43;;
20954;SDS011;10636;19.390;-99.256;2023-06-05T09:29:35;11.60;;;10.52;;
20954;SDS011;10636;19.390;-99.256;2023-06-05T09:32:05;12.23;;;11.13;;
20954;SDS011;10636;19.390;-99.256;2023-06-05T09:34:35;11.70;;;10.70;;
20954;SDS011;10636;19.390;-99.256;2023-06-05T09:37:05;11.85;;;10.85;;
20954;SDS011;10636;19.390;-99.256;2023-06-05T09:39:35;10.98;;;9.98;;
20954;SDS011;10636;19.390;-99.256;2023-06-05T09:42:04;11.77;;;10.57;;
20954;SDS011;10636;19.390;-99.256;2023-06-05T09:44:35;11.52;;;10.43;;
20954;SDS011;10636;19.390;-99.256;2023-06-05T09:47:04;11.43;;;10.43;;
20954;SDS011;10636;19.390;-99.256;2023-06-05T09:49:46;11.65;;;10.45;;
20954;SDS011;10636;19.390;-99.256;2023-06-05T09:52:15;11.98;;;10.55;;
20954;SDS011;10636;19.390;-99.256;2023-06-05T09:54:44;12.00;;;10.90;;
20954;SDS011;10636;19.390;-99.256;2023-06-05T09:57:13;12.10;;;11.00;;
20954;SDS011;10636;19.390;-99.256;2023-06-05T09:59:48;11.98;;;10.88;;
20954;SDS011;10636;19.390;-99.256;2023-06-05T10:02:19;12.00;;;10.88;;
20954;SDS011;10636;19.390;-99.256;2023-06-05T10:04:51;12.63;;;11.50;;
20954;SDS011;10636;19.390;-99.256;2023-06-05T10:07:24;11.55;;;10.55;;
20954;SDS011;10636;19.390;-99.256;2023-06-05T10:09:53;12.27;;;11.07;;
20954;SDS011;10636;19.390;-99.256;2023-06-05T10:12:23;12.23;;;11.18;;
20954;SDS011;10636;19.390;-99.256;2023-06-05T10:14:54;12.35;;;11.27;;
20954;SDS011;10636;19.390;-99.256;2023-06-05T10:17:23;12.40;;;11.18;;
20954;SDS011;10636;19.390;-99.256;2023-06-05T10:19:52;12.10;;;10.90;;
20954;SDS011;10636;19.390;-99.256;2023-06-05T10:22:21;11.43;;;10.43;;
20954;SDS011;10636;19.390;-99.256;2023-06-05T10:24:52;12.00;;;11.00;;
20954;SDS011;10636;19.390;-99.256;2023-06-05T10:27:30;12.80;;;11.65;;
20954;SDS011;10636;19.390;-99.256;2023-06-05T10:30:25;12.20;;;11.20;;
20954;SDS011;10636;19.390;-99.256;2023-06-05T10:33:11;12.07;;;11.07;;
20954;SDS011;10636;19.390;-99.256;2023-06-05T10:35:50;11.52;;;10.32;;
20954;SDS011;10636;19.390;-99.256;2023-06-05T10:38:27;12.27;;;11.18;;
20954;SDS011;10636;19.390;-99.256;2023-06-05T10:40:57;12.68;;;11.40;;
20954;SDS011;10636;19.390;-99.256;2023-06-05T10:43:27;12.52;;;11.43;;
20954;SDS011;10636;19.390;-99.256;2023-06-05T10:45:58;12.18;;;11.07;;
20954;SDS011;10636;19.390;-99.256;2023-06-05T10:51:33;11.93;;;10.82;;
20954;SDS011;10636;19.390;-99.256;2023-06-05T10:54:06;12.20;;;11.10;;
20954;SDS011;10636;19.390;-99.256;2023-06-05T10:59:24;11.63;;;10.60;;
20954;SDS011;10636;19.390;-99.256;2023-06-05T11:05:06;11.40;;;10.40;;
20954;SDS011;10636;19.390;-99.256;2023-06-05T11:07:38;11.77;;;10.68;;
20954;SDS011;10636;19.390;-99.256;2023-06-05T11:10:09;10.93;;;9.93;;
20954;SDS011;10636;19.390;-99.256;2023-06-05T11:12:59;11.70;;;10.57;;
20954;SDS011;10636;19.390;-99.256;2023-06-05T11:18:34;11.60;;;10.50;;
20954;SDS011;10636;19.390;-99.256;2023-06-05T11:21:05;11.80;;;10.80;;
20954;SDS011;10636;19.390;-99.256;2023-06-05T11:23:34;11.77;;;10.15;;
20954;SDS011;10636;19.390;-99.256;2023-06-05T11:29:13;11.80;;;10.70;;
20954;SDS011;10636;19.390;-99.256;2023-06-05T11:31:44;11.57;;;10.57;;
20954;SDS011;10636;19.390;-99.256;2023-06-05T11:34:15;10.98;;;10.07;;
20954;SDS011;10636;19.390;-99.256;2023-06-05T11:36:44;12.20;;;10.98;;
20954;SDS011;10636;19.390;-99.256;2023-06-05T11:39:13;11.70;;;10.55;;
20954;SDS011;10636;19.390;-99.256;2023-06-05T11:41:46;12.25;;;11.07;;
20954;SDS011;10636;19.390;-99.256;2023-06-05T11:44:16;11.80;;;10.82;;
20954;SDS011;10636;19.390;-99.256;2023-06-05T11:46:58;12.68;;;11.63;;
20954;SDS011;10636;19.390;-99.256;2023-06-05T11:49:29;11.65;;;10.60;;
20954;SDS011;10636;19.390;-99.256;2023-06-05T11:51:59;11.48;;;10.38;;
20954;SDS011;10636;19.390;-99.256;2023-06-05T11:54:29;12.50;;;11.18;;
20954;SDS011;10636;19.390;-99.256;2023-06-05T11:57:05;12.18;;;10.98;;
20954;SDS011;10636;19.390;-99.256;2023-06-05T11:59:38;12.43;;;10.95;;
20954;SDS011;10636;19.390;-99.256;2023-06-05T12:02:08;12.43;;;11.10;;
20954;SDS011;10636;19.390;-99.256;2023-06-05T12:04:40;11.82;;;10.77;;
20954;SDS011;10636;19.390;-99.256;2023-06-05T12:07:10;12.02;;;10.95;;
20954;SDS011;10636;19.390;-99.256;2023-06-05T12:09:39;12.05;;;10.73;;
20954;SDS011;10636;19.390;-99.256;2023-06-05T12:12:18;12.23;;;11.02;;
20954;SDS011;10636;19.390;-99.256;2023-06-05T12:14:47;12.70;;;11.38;;
20954;SDS011;10636;19.390;-99.256;2023-06-05T12:17:16;12.85;;;11.55;;
20954;SDS011;10636;19.390;-99.256;2023-06-05T12:19:54;13.00;;;11.80;;
20954;SDS011;10636;19.390;-99.256;2023-06-05T12:22:23;13.15;;;12.05;;
20954;SDS011;10636;19.390;-99.256;2023-06-05T12:24:52;14.45;;;13.13;;
20954;SDS011;10636;19.390;-99.256;2023-06-05T12:27:29;14.38;;;12.90;;
20954;SDS011;10636;19.390;-99.256;2023-06-05T12:29:59;14.23;;;12.85;;
20954;SDS011;10636;19.390;-99.256;2023-06-05T12:32:28;13.95;;;12.65;;
20954;SDS011;10636;19.390;-99.256;2023-06-05T12:34:59;14.07;;;12.68;;
20954;SDS011;10636;19.390;-99.256;2023-06-05T12:37:28;14.55;;;13.20;;
20954;SDS011;10636;19.390;-99.256;2023-06-05T12:40:00;14.07;;;12.70;;
20954;SDS011;10636;19.390;-99.256;2023-06-05T12:42:34;14.02;;;12.60;;
20954;SDS011;10636;19.390;-99.256;2023-06-05T12:45:04;13.50;;;12.30;;
20954;SDS011;10636;19.390;-99.256;2023-06-05T12:47:34;14.57;;;13.15;;
20954;SDS011;10636;19.390;-99.256;2023-06-05T12:50:07;14.05;;;12.68;;
20954;SDS011;10636;19.390;-99.256;2023-06-05T12:52:38;15.00;;;13.38;;
20954;SDS011;10636;19.390;-99.256;2023-06-05T12:55:08;14.98;;;13.63;;
20954;SDS011;10636;19.390;-99.256;2023-06-05T12:57:38;15.35;;;14.02;;
20954;SDS011;10636;19.390;-99.256;2023-06-05T13:00:07;14.93;;;13.15;;
20954;SDS011;10636;19.390;-99.256;2023-06-05T13:02:45;14.93;;;13.43;;
20954;SDS011;10636;19.390;-99.256;2023-06-05T13:05:16;15.02;;;13.60;;
20954;SDS011;10636;19.390;-99.256;2023-06-05T13:07:45;15.30;;;13.80;;
20954;SDS011;10636;19.390;-99.256;2023-06-05T13:10:15;15.25;;;13.73;;
20954;SDS011;10636;19.390;-99.256;2023-06-05T13:12:44;15.93;;;14.38;;
20954;SDS011;10636;19.390;-99.256;2023-06-05T13:15:14;15.50;;;14.00;;
20954;SDS011;10636;19.390;-99.256;2023-06-05T13:17:43;16.17;;;13.98;;
20954;SDS011;10636;19.390;-99.256;2023-06-05T13:20:13;16.60;;;13.95;;
20954;SDS011;10636;19.390;-99.256;2023-06-05T13:22:44;16.55;;;14.10;;
20954;SDS011;10636;19.390;-99.256;2023-06-05T13:25:13;15.57;;;14.10;;
20954;SDS011;10636;19.390;-99.256;2023-06-05T13:27:42;17.13;;;15.27;;
20954;SDS011;10636;19.390;-99.256;2023-06-05T13:30:11;17.40;;;14.65;;
20954;SDS011;10636;19.390;-99.256;2023-06-05T13:32:41;15.77;;;14.15;;
20954;SDS011;10636;19.390;-99.256;2023-06-05T13:35:11;15.93;;;14.02;;
20954;SDS011;10636;19.390;-99.256;2023-06-05T13:37:40;16.65;;;15.05;;
20954;SDS011;10636;19.390;-99.256;2023-06-05T13:40:12;16.77;;;15.25;;
20954;SDS011;10636;19.390;-99.256;2023-06-05T13:42:41;16.20;;;14.68;;
20954;SDS011;10636;19.390;-99.256;2023-06-05T13:45:11;16.52;;;15.10;;
20954;SDS011;10636;19.390;-99.256;2023-06-05T13:47:40;15.75;;;14.05;;
20954;SDS011;10636;19.390;-99.256;2023-06-05T13:50:09;16.35;;;14.73;;
20954;SDS011;10636;19.390;-99.256;2023-06-05T13:52:38;16.15;;;14.43;;
20954;SDS011;10636;19.390;-99.256;2023-06-05T13:55:07;17.15;;;15.45;;
20954;SDS011;10636;19.390;-99.256;2023-06-05T13:57:38;17.50;;;15.80;;
20954;SDS011;10636;19.390;-99.256;2023-06-05T14:00:08;17.30;;;15.68;;
20954;SDS011;10636;19.390;-99.256;2023-06-05T14:02:38;17.08;;;15.35;;
20954;SDS011;10636;19.390;-99.256;2023-06-05T14:05:07;17.75;;;15.95;;
20954;SDS011;10636;19.390;-99.256;2023-06-05T14:07:38;17.50;;;15.85;;
20954;SDS011;10636;19.390;-99.256;2023-06-05T14:10:08;18.23;;;16.40;;
20954;SDS011;10636;19.390;-99.256;2023-06-05T14:12:40;17.85;;;16.05;;
20954;SDS011;10636;19.390;-99.256;2023-06-05T14:15:09;18.23;;;16.42;;
20954;SDS011;10636;19.390;-99.256;2023-06-05T14:17:38;17.45;;;15.82;;
20954;SDS011;10636;19.390;-99.256;2023-06-05T14:20:08;17.95;;;16.20;;
20954;SDS011;10636;19.390;-99.256;2023-06-05T14:22:37;18.00;;;16.23;;
20954;SDS011;10636;19.390;-99.256;2023-06-05T14:25:07;18.23;;;16.55;;
20954;SDS011;10636;19.390;-99.256;2023-06-05T14:27:37;18.63;;;16.63;;
20954;SDS011;10636;19.390;-99.256;2023-06-05T14:30:10;18.73;;;16.92;;
20954;SDS011;10636;19.390;-99.256;2023-06-05T14:32:40;18.65;;;16.98;;
20954;SDS011;10636;19.390;-99.256;2023-06-05T14:35:09;19.02;;;17.25;;
20954;SDS011;10636;19.390;-99.256;2023-06-05T14:37:38;19.17;;;17.38;;
20954;SDS011;10636;19.390;-99.256;2023-06-05T14:40:09;18.60;;;16.63;;